默认 日期 大小 文件数 浏览量 最新下载 xml
need磁力链接相关资源由用户搜索指令自动获取,结果来源于网络,本站不存储任何资料,亦不承担任何责任,请于24小时内删除,搜索到37470个磁力,显示前4000条数据,用时6ms。
    {"Установка.txt": 860, "BLUS31010-[Need for Speed Most Wanted]": {"PS3_GAME": {" ...
创建时间: 2018-10-29 05:59:15 大小:4.6 GB 文件数量:3400 热度:34 最近下载:2025-08-03 09:16:03
    {"Tradução.exe": 347945, "The Pirate Jogos.png": 59567, "NFS Most Wanted - Unique.exe": 1201314318, "LEIA __ IMPORTANTE - SEED.txt": 999}
创建时间: 2018-10-29 06:12:08 大小:1.12 GB 文件数量:4 热度:31 最近下载:2025-07-17 02:37:01
    {"099. DJ Matrix - Cr9.mp3": 8454889, "071. Mercid - Up! (Original Mix).mp3": 9050457, "077. Thimlife Ft. Bibianez - Home.mp3": 7369218, "001. Madd Dave - Alpha (Original Mix).mp3": 8781914, "042. Sagan - Can't Stop (Extended Mix).mp3": 9345116, "085. ...
创建时间: 2018-10-29 06:19:14 大小:992.68 MB 文件数量:100 热度:11 最近下载:2025-07-14 00:05:01
    {"WwW.ThePiRaTeFiLmEs.CoM.jpg": 32003, "Need For Speed (2014) BRrip 720p Dublado - AndreTPF.mp4": 951991723}
创建时间: 2018-10-29 06:40:49 大小:907.92 MB 文件数量:2 热度:13 最近下载:2025-05-06 18:15:02
    {"cover.jpg": 712471, "mp3tag.m3u": 1463, "02. Binary - Dynamo.mp3": 10289152, "13. Garmiani - Rumble.mp3": 11128832, "10. Feed Me - Rat Trap.mp3": 9105408, "05. Chris Lake - Goodbye.mp3": 9897984, "31. The Qemists - No More.mp3": 10022912, "03. Brick + ...
创建时间: 2018-10-29 06:55:38 大小:320.64 MB 文件数量:36 热度:21 最近下载:2025-04-03 01:30:03
    {"femjoy.18.10.06.natalia.e.i.need.somebody[N1C].mp4": 417437353}
创建时间: 2018-10-29 07:18:54 大小:398.1 MB 文件数量:1 热度:53 最近下载:2025-10-17 22:27:02
    {"redist": {"dxwebsetup.exe": 299864}, "Setup.exe": 843010, "Setup-1.bin": 368180121, "autorun.inf": 41}
创建时间: 2018-10-29 07:49:19 大小:352.21 MB 文件数量:4 热度:24 最近下载:2025-04-10 06:07:02
    ... ": 373724, "needforspeedcover-reflux.png": 182905}, "Need.For.Speed.2014.480p.BDRip ...
创建时间: 2018-10-29 07:49:37 大小:1.3 GB 文件数量:9 热度:19 最近下载:2025-04-18 22:27:03
    {"b-nfshp.part01.rar": 100431872, "b-nfshp.part02.rar": 100431872, "b-nfshp.part03.rar": 100431872, "b-nfshp.part04.rar": 100431872, "b-nfshp.part05.rar": 100431872, "b-nfshp.part06.rar": 100431872, "b-nfshp.part07.rar": 100431872, "b-nfshp.part08.rar": ...
创建时间: 2018-10-29 07:56:18 大小:1.38 GB 文件数量:15 热度:16 最近下载:2025-08-03 07:51:08
    {"data1.arc": 946526246, "data2.arc": 1846664995, "data3.arc": 4082502, "data4.arc": 3791, "setup.exe": 2355613, "autorun.inf": 49, "dxwebsetup.exe": 292184, "vcredist_x86.exe": 4995416}
创建时间: 2018-10-29 08:49:00 大小:2.61 GB 文件数量:8 热度:19 最近下载:2025-04-19 20:27:01
    {"joymii.18.10.19.lena.reif.i.need.to.get.pounded.mp4": 189488615}
创建时间: 2018-10-29 08:54:25 大小:180.71 MB 文件数量:1 热度:257 最近下载:2025-10-16 23:04:01
    {"CD-key.txt": 44, "NFSHP2.jpg": 69538, "Need for Speed.iso": 644452352, "NeedforspeedHotpesuit2.nfo": 1385}
创建时间: 2018-10-29 08:57:18 大小:614.67 MB 文件数量:4 热度:15 最近下载:2025-08-03 06:02:16
    {"prophet.nfo": 13632, "ppt-nshp.iso": 8306823168}
创建时间: 2018-10-29 09:11:47 大小:7.74 GB 文件数量:2 热度:25 最近下载:2025-08-10 00:51:01
    {"CD-key.txt": 44, "NFSHP2.jpg": 69538, "Need for Speed.iso": 644452352, "NeedforspeedHotpesuit2.nfo": 1385}
创建时间: 2018-10-29 09:31:50 大小:614.67 MB 文件数量:4 热度:14 最近下载:2025-08-07 05:25:03
    {"Cross H v01.rar": 66036867, "Cross H v02.rar": 54309865, "Cross H v03e.rar": 53344395, "ALL I NEED v01.rar": 52407158}
创建时间: 2018-10-29 10:07:25 大小:215.62 MB 文件数量:4 热度:22 最近下载:2025-10-18 07:35:02
    {"Need for Speed - High Stakes (USA).7z": 510774848, "_ visit www.PORTALROMS.com for more games _.url": 52}
创建时间: 2018-10-29 11:01:28 大小:487.11 MB 文件数量:2 热度:20 最近下载:2025-04-03 18:06:02
    {"Tracks.txt": 1070, "Hush - 07 - Fired Up.mp3": 6347631, "Rock - 03 - I Am Rock.mp3": 6471347, "Hyper - 13 - We Control.mp3": 5545985, "Lupe Fiasco - 10 - Tilted.mp3": 6536549, "Static-X - 14 - Skinnyman.mp3": 6486393, "Disturbed - 16 - Decadence.mp3": ...
创建时间: 2018-10-29 11:50:39 大小:181.63 MB 文件数量:27 热度:26 最近下载:2025-04-05 18:42:02
    {"099. DJ Matrix - Cr9.mp3": 8454889, "071. Mercid - Up! (Original Mix).mp3": 9050457, "077. Thimlife Ft. Bibianez - Home.mp3": 7369218, "001. Madd Dave - Alpha (Original Mix).mp3": 8781914, "042. Sagan - Can't Stop (Extended Mix).mp3": 9345116, "085. ...
创建时间: 2018-10-29 12:12:35 大小:992.68 MB 文件数量:100 热度:11 最近下载:2025-04-07 23:45:01
    {"Torrent Downloaded From Katcr.co - Kickasstorrents.txt": 110, "How To Brew - Everything You Need to Know to Brew Great Beer - 4E (2017).pdf": 109149564}
创建时间: 2018-10-29 12:32:54 大小:104.09 MB 文件数量:2 热度:28 最近下载:2025-10-03 13:44:04
    {"soft.markusevo": 262245, "Setup_NFSU2.exe": 125147111, "data-1.markusevo": 576350166, "data-2.markusevo": 285540331, "data-3.markusevo": 245633363, "data-4.markusevo": 72621313, "data-5.markusevo": 141256869}
创建时间: 2018-10-29 13:06:06 大小:1.35 GB 文件数量:7 热度:24 最近下载:2025-04-12 08:01:55